Архив погоды в Арзамасе

Метеограмма Арзамас
Вторник, 22 Мая
Время местн. Темп Ветер Видим Явления Облачность нижн/средн/верх Атм. давл. Влжн Точка росы ВНГО R Сост. почвы Tg s
Напр Скр Прв ур.ст ур.м изм
21:00 +17° В 1 2 4 км - преимущественно облачно 760 771 0 56% +8.2° - - - - -
18:00 +24.1° Ю-В 2 4 20 км - переменная облачность 760 771 -1.1 21% +0.6° более 2.5 км - - - -
15:00 +23.8° Ю-В 2 4 20 км - переменная облачность 761 772 -1.1 21% более 2.5 км - - - -
12:00 +21.9° В,Ю-В 3 5 20 км - переменная облачность 762 773 -0.8 26% +1.7° более 2.5 км - - - -
09:00 +17.8° Ю-В 3 6 20 км - ясно 763 761 +0.5 30% +0.2° более 2.5 км - - - -
06:00 +9.9° В,С-В 2 3 20 км - ясно 763 774 +0.8 67% +4° более 2.5 км - Сухая (без трещин) - -
03:00 +5.1° В,С-В 2 2 4 км - ясно 762 774 +0.8 83% +2.4° более 2.5 км - - - -
00:00 +7.3° С-В 1 2 4 км - ясно 761 773 +0.5 78% +3.8° более 2.5 км - - - -
Понедельник, 21 Мая
Время местн. Темп Ветер Видим Явления Облачность нижн/средн/верх Атм. давл. Влжн Точка росы ВНГО R Сост. почвы Tg s
Напр Скр Прв ур.ст ур.м изм
21:00 +11.1° С-В 1 3 4 км - ясно 761 772 +1 62% +4° более 2.5 км - - - -
18:00 +18.7° С-В 3 7 20 км - ясно 760 771 -0.3 32% +1.5° более 2.5 км - - - -
15:00 +18.1° С-В 7 9 20 км - ясно 760 771 +0.2 32% +1.3° более 2.5 км - - - -
12:00 +15.8° С-В 5 9 20 км - ясно 760 771 +0.2 38% +1.5° более 2.5 км - - - -
09:00 +11.8° В,С-В 4 8 20 км - ясно 760 771 +0.8 58% +3.8° более 2.5 км - - - -
06:00 +7.1° В,С-В 2 4 20 км - ясно 759 770 +1.4 78% +3.6° более 2.5 км - Сухая (без трещин) - -
03:00 +6.8° С-В 1 2 4 км - переменная облачность 757 769 +1.2 78% +3.2° 600 м - - - -
00:00 +8.6° С-В 3 5 4 км - переменная облачность 756 768 +0.7 73% +4° 600 м - - - -
Воскресенье, 20 Мая
Время местн. Темп Ветер Видим Явления Облачность нижн/средн/верх Атм. давл. Влжн Точка росы ВНГО R Сост. почвы Tg s
Напр Скр Прв ур.ст ур.м изм
21:00 +10.8° С,С-В 3 6 4 км - преимущественно облачно 756 767 +1.6 74% +6.4° 600 м - - - -
18:00 +12.3° С,С-В 3 6 20 км - преимущественно облачно 754 765 +0.6 71% +7.1° 600 м - - - -
15:00 +12.2° С,С-З 4 5 20 км - облачно 753 765 +1.7 74% +7.7° 600 м - - - -
12:00 +12.7° С 3 6 20 км - облачно 752 763 +1.9 74% +8.2° 600 м - - - -
09:00 +12.6° С-З 4 6 20 км небо без изменений {ливневые осадки} облачно 750 761 +1.8 79% +9° 600 м - - - -
06:00 +11.8° С-З 2 - 20 км ливневый дождь облачно 748 759 +2.2 88% +9.8° 600 м - Влажная (без луж) - -
03:00 +13.4° З,С-З 3 5 4 км ливневый дождь облачно 746 757 +1.3 90% +11.8° 600 м - - - -
00:00 +14° Ю-З 4 6 4 км - облачно 745 756 +0.5 87% +11.8° 600 м - - - -
Суббота, 19 Мая
Время местн. Темп Ветер Видим Явления Облачность нижн/средн/верх Атм. давл. Влжн Точка росы ВНГО R Сост. почвы Tg s
Напр Скр Прв ур.ст ур.м изм
21:00 +14.8° Ю-З 4 6 4 км небо без изменений {ливневые осадки} облачно 744 755 +0.8 80% +11.4° 600 м - - - -
18:00 +17.8° З 6 10 20 км небо без изменений {ливневые осадки} переменная облачность 743 754 -0.3 68% +11.8° 600 м - - - -